sensor_id;sensor_type;location;lat;lon;timestamp;temperature;humidity
29031;DHT22;16122;50.236;11.734;2023-03-23T00:01:49;16.90;58.40
29031;DHT22;16122;50.236;11.734;2023-03-23T00:04:18;17.00;58.50
29031;DHT22;16122;50.236;11.734;2023-03-23T00:06:44;16.90;58.50
29031;DHT22;16122;50.236;11.734;2023-03-23T00:09:12;16.90;58.50
29031;DHT22;16122;50.236;11.734;2023-03-23T00:11:41;16.90;58.50
29031;DHT22;16122;50.236;11.734;2023-03-23T00:14:09;16.90;58.30
29031;DHT22;16122;50.236;11.734;2023-03-23T00:16:39;17.00;58.40
29031;DHT22;16122;50.236;11.734;2023-03-23T00:19:11;16.90;58.30
29031;DHT22;16122;50.236;11.734;2023-03-23T00:21:42;17.00;58.40
29031;DHT22;16122;50.236;11.734;2023-03-23T00:26:40;16.90;58.30
29031;DHT22;16122;50.236;11.734;2023-03-23T00:29:18;16.90;58.10
29031;DHT22;16122;50.236;11.734;2023-03-23T00:31:45;16.90;58.10
29031;DHT22;16122;50.236;11.734;2023-03-23T00:34:22;16.90;58.10
29031;DHT22;16122;50.236;11.734;2023-03-23T00:36:57;16.90;58.00
29031;DHT22;16122;50.236;11.734;2023-03-23T00:39:23;16.90;58.10
29031;DHT22;16122;50.236;11.734;2023-03-23T00:41:51;16.90;58.20
29031;DHT22;16122;50.236;11.734;2023-03-23T00:44:16;16.90;57.70
29031;DHT22;16122;50.236;11.734;2023-03-23T00:46:44;16.90;57.90
29031;DHT22;16122;50.236;11.734;2023-03-23T00:49:19;16.90;58.00
29031;DHT22;16122;50.236;11.734;2023-03-23T00:51:46;16.90;57.90
29031;DHT22;16122;50.236;11.734;2023-03-23T00:54:12;16.90;58.00
29031;DHT22;16122;50.236;11.734;2023-03-23T00:56:39;16.90;57.90
29031;DHT22;16122;50.236;11.734;2023-03-23T00:59:05;16.90;57.90
29031;DHT22;16122;50.236;11.734;2023-03-23T01:01:32;16.90;57.90
29031;DHT22;16122;50.236;11.734;2023-03-23T01:03:59;16.90;57.80
29031;DHT22;16122;50.236;11.734;2023-03-23T01:06:31;16.90;57.80
29031;DHT22;16122;50.236;11.734;2023-03-23T01:08:58;16.90;57.80
29031;DHT22;16122;50.236;11.734;2023-03-23T01:11:24;16.90;57.80
29031;DHT22;16122;50.236;11.734;2023-03-23T01:13:51;16.90;58.10
29031;DHT22;16122;50.236;11.734;2023-03-23T01:16:20;16.90;57.50
29031;DHT22;16122;50.236;11.734;2023-03-23T01:18:46;16.90;57.50
29031;DHT22;16122;50.236;11.734;2023-03-23T01:21:14;16.90;57.50
29031;DHT22;16122;50.236;11.734;2023-03-23T01:23:41;16.80;57.60
29031;DHT22;16122;50.236;11.734;2023-03-23T01:26:14;16.90;57.50
29031;DHT22;16122;50.236;11.734;2023-03-23T01:28:40;16.80;57.30
29031;DHT22;16122;50.236;11.734;2023-03-23T01:31:10;16.80;57.50
29031;DHT22;16122;50.236;11.734;2023-03-23T01:33:38;16.80;57.50
29031;DHT22;16122;50.236;11.734;2023-03-23T01:36:08;16.90;57.60
29031;DHT22;16122;50.236;11.734;2023-03-23T01:38:34;16.90;57.70
29031;DHT22;16122;50.236;11.734;2023-03-23T01:41:01;16.90;57.70
29031;DHT22;16122;50.236;11.734;2023-03-23T01:43:27;16.90;57.60
29031;DHT22;16122;50.236;11.734;2023-03-23T01:45:53;16.80;57.70
29031;DHT22;16122;50.236;11.734;2023-03-23T01:48:40;16.90;57.70
29031;DHT22;16122;50.236;11.734;2023-03-23T01:51:13;16.90;57.70
29031;DHT22;16122;50.236;11.734;2023-03-23T01:53:57;16.90;57.70
29031;DHT22;16122;50.236;11.734;2023-03-23T01:56:28;16.90;57.60
29031;DHT22;16122;50.236;11.734;2023-03-23T01:58:59;16.90;57.60
29031;DHT22;16122;50.236;11.734;2023-03-23T02:01:26;16.90;57.60
29031;DHT22;16122;50.236;11.734;2023-03-23T02:03:54;16.80;57.60
29031;DHT22;16122;50.236;11.734;2023-03-23T02:06:21;16.80;57.60
29031;DHT22;16122;50.236;11.734;2023-03-23T02:09:11;16.80;57.70
29031;DHT22;16122;50.236;11.734;2023-03-23T02:11:39;16.80;57.70
29031;DHT22;16122;50.236;11.734;2023-03-23T02:14:06;16.80;57.80
29031;DHT22;16122;50.236;11.734;2023-03-23T02:16:43;16.80;57.70
29031;DHT22;16122;50.236;11.734;2023-03-23T02:22:28;16.80;57.60
29031;DHT22;16122;50.236;11.734;2023-03-23T02:35:54;16.80;57.40
29031;DHT22;16122;50.236;11.734;2023-03-23T02:38:30;16.80;57.40
29031;DHT22;16122;50.236;11.734;2023-03-23T02:41:00;16.80;57.50
29031;DHT22;16122;50.236;11.734;2023-03-23T02:43:33;16.80;57.20
29031;DHT22;16122;50.236;11.734;2023-03-23T02:46:04;16.80;57.30
29031;DHT22;16122;50.236;11.734;2023-03-23T02:48:33;16.80;57.40
29031;DHT22;16122;50.236;11.734;2023-03-23T02:51:00;16.80;57.50
29031;DHT22;16122;50.236;11.734;2023-03-23T02:53:28;16.80;57.40
29031;DHT22;16122;50.236;11.734;2023-03-23T02:55:57;16.80;57.50
29031;DHT22;16122;50.236;11.734;2023-03-23T02:58:27;16.80;57.50
29031;DHT22;16122;50.236;11.734;2023-03-23T03:00:54;16.80;57.50
29031;DHT22;16122;50.236;11.734;2023-03-23T03:03:24;16.80;57.70
29031;DHT22;16122;50.236;11.734;2023-03-23T03:11:14;16.80;57.60
29031;DHT22;16122;50.236;11.734;2023-03-23T03:21:21;16.80;57.60
29031;DHT22;16122;50.236;11.734;2023-03-23T03:23:56;16.80;57.40
29031;DHT22;16122;50.236;11.734;2023-03-23T03:26:30;16.80;57.40
29031;DHT22;16122;50.236;11.734;2023-03-23T03:29:09;16.80;57.40
29031;DHT22;16122;50.236;11.734;2023-03-23T03:31:42;16.80;57.30
29031;DHT22;16122;50.236;11.734;2023-03-23T03:34:11;16.80;57.30
29031;DHT22;16122;50.236;11.734;2023-03-23T03:36:40;16.80;57.40
29031;DHT22;16122;50.236;11.734;2023-03-23T03:39:10;16.80;57.30
29031;DHT22;16122;50.236;11.734;2023-03-23T03:41:37;16.80;57.20
29031;DHT22;16122;50.236;11.734;2023-03-23T03:44:04;16.80;57.20
29031;DHT22;16122;50.236;11.734;2023-03-23T03:46:31;16.80;57.10
29031;DHT22;16122;50.236;11.734;2023-03-23T03:48:58;16.80;57.20
29031;DHT22;16122;50.236;11.734;2023-03-23T03:51:26;16.80;57.20
29031;DHT22;16122;50.236;11.734;2023-03-23T03:53:53;16.80;57.20
29031;DHT22;16122;50.236;11.734;2023-03-23T03:56:20;16.80;57.20
29031;DHT22;16122;50.236;11.734;2023-03-23T03:58:56;16.80;57.10
29031;DHT22;16122;50.236;11.734;2023-03-23T04:01:41;16.80;57.10
29031;DHT22;16122;50.236;11.734;2023-03-23T04:04:07;16.80;57.20
29031;DHT22;16122;50.236;11.734;2023-03-23T04:06:35;16.80;57.20
29031;DHT22;16122;50.236;11.734;2023-03-23T04:09:05;16.80;57.10
29031;DHT22;16122;50.236;11.734;2023-03-23T04:11:34;16.80;57.00
29031;DHT22;16122;50.236;11.734;2023-03-23T04:14:20;16.80;57.10
29031;DHT22;16122;50.236;11.734;2023-03-23T04:16:47;16.80;57.00
29031;DHT22;16122;50.236;11.734;2023-03-23T04:19:13;16.80;56.80
29031;DHT22;16122;50.236;11.734;2023-03-23T04:21:39;16.80;57.00
29031;DHT22;16122;50.236;11.734;2023-03-23T04:24:06;16.80;56.90
29031;DHT22;16122;50.236;11.734;2023-03-23T04:26:32;16.80;57.00
29031;DHT22;16122;50.236;11.734;2023-03-23T04:29:05;16.80;56.90
29031;DHT22;16122;50.236;11.734;2023-03-23T04:31:35;16.80;56.90
29031;DHT22;16122;50.236;11.734;2023-03-23T04:34:24;16.80;56.90
29031;DHT22;16122;50.236;11.734;2023-03-23T04:36:52;16.80;56.90
29031;DHT22;16122;50.236;11.734;2023-03-23T04:39:22;16.80;57.00
29031;DHT22;16122;50.236;11.734;2023-03-23T04:41:50;16.80;57.10
29031;DHT22;16122;50.236;11.734;2023-03-23T04:44:34;16.80;57.10
29031;DHT22;16122;50.236;11.734;2023-03-23T04:47:04;16.80;57.00
29031;DHT22;16122;50.236;11.734;2023-03-23T04:49:35;16.80;57.00
29031;DHT22;16122;50.236;11.734;2023-03-23T04:52:11;16.80;57.00
29031;DHT22;16122;50.236;11.734;2023-03-23T04:54:43;16.80;56.90
29031;DHT22;16122;50.236;11.734;2023-03-23T04:57:10;16.80;56.90
29031;DHT22;16122;50.236;11.734;2023-03-23T04:59:40;16.80;57.00
29031;DHT22;16122;50.236;11.734;2023-03-23T05:02:12;16.80;57.10
29031;DHT22;16122;50.236;11.734;2023-03-23T05:04:40;16.80;57.20
29031;DHT22;16122;50.236;11.734;2023-03-23T05:07:19;16.80;57.20
29031;DHT22;16122;50.236;11.734;2023-03-23T05:09:48;16.80;57.20
29031;DHT22;16122;50.236;11.734;2023-03-23T05:12:16;16.80;57.30
29031;DHT22;16122;50.236;11.734;2023-03-23T05:14:52;16.80;57.20
29031;DHT22;16122;50.236;11.734;2023-03-23T05:17:21;16.80;57.30
29031;DHT22;16122;50.236;11.734;2023-03-23T05:19:51;16.80;57.20
29031;DHT22;16122;50.236;11.734;2023-03-23T05:22:32;16.80;57.30
29031;DHT22;16122;50.236;11.734;2023-03-23T05:25:00;16.80;57.50
29031;DHT22;16122;50.236;11.734;2023-03-23T05:27:33;16.80;57.50
29031;DHT22;16122;50.236;11.734;2023-03-23T05:30:05;16.80;57.50
29031;DHT22;16122;50.236;11.734;2023-03-23T05:32:33;16.80;57.60
29031;DHT22;16122;50.236;11.734;2023-03-23T05:35:13;16.80;58.20
29031;DHT22;16122;50.236;11.734;2023-03-23T05:37:38;16.80;58.10
29031;DHT22;16122;50.236;11.734;2023-03-23T05:40:07;16.80;58.00
29031;DHT22;16122;50.236;11.734;2023-03-23T05:42:34;16.80;58.20
29031;DHT22;16122;50.236;11.734;2023-03-23T05:45:18;16.80;58.30
29031;DHT22;16122;50.236;11.734;2023-03-23T05:47:47;16.80;58.30
29031;DHT22;16122;50.236;11.734;2023-03-23T05:50:18;16.80;58.40
29031;DHT22;16122;50.236;11.734;2023-03-23T05:52:44;16.80;58.40
29031;DHT22;16122;50.236;11.734;2023-03-23T05:55:12;16.80;58.60
29031;DHT22;16122;50.236;11.734;2023-03-23T05:57:40;16.80;58.50
29031;DHT22;16122;50.236;11.734;2023-03-23T06:00:22;16.80;58.50
29031;DHT22;16122;50.236;11.734;2023-03-23T06:02:56;16.80;58.60
29031;DHT22;16122;50.236;11.734;2023-03-23T06:05:30;16.80;58.50
29031;DHT22;16122;50.236;11.734;2023-03-23T06:07:57;16.80;58.40
29031;DHT22;16122;50.236;11.734;2023-03-23T06:10:24;16.70;58.20
29031;DHT22;16122;50.236;11.734;2023-03-23T06:12:54;16.80;58.40
29031;DHT22;16122;50.236;11.734;2023-03-23T06:15:38;16.80;58.30
29031;DHT22;16122;50.236;11.734;2023-03-23T06:18:16;16.80;58.30
29031;DHT22;16122;50.236;11.734;2023-03-23T06:21:01;16.80;58.20
29031;DHT22;16122;50.236;11.734;2023-03-23T06:24:00;16.80;58.20
29031;DHT22;16122;50.236;11.734;2023-03-23T06:26:39;16.80;58.20
29031;DHT22;16122;50.236;11.734;2023-03-23T06:29:10;16.80;58.20
29031;DHT22;16122;50.236;11.734;2023-03-23T06:31:43;16.80;58.30
29031;DHT22;16122;50.236;11.734;2023-03-23T06:34:10;16.80;58.30
29031;DHT22;16122;50.236;11.734;2023-03-23T06:37:06;16.80;58.30
29031;DHT22;16122;50.236;11.734;2023-03-23T06:39:52;16.80;58.30
29031;DHT22;16122;50.236;11.734;2023-03-23T06:42:30;16.80;58.50
29031;DHT22;16122;50.236;11.734;2023-03-23T06:45:34;16.80;59.00
29031;DHT22;16122;50.236;11.734;2023-03-23T06:48:18;16.80;59.60
29031;DHT22;16122;50.236;11.734;2023-03-23T06:50:45;16.80;60.20
29031;DHT22;16122;50.236;11.734;2023-03-23T06:53:14;16.80;60.50
29031;DHT22;16122;50.236;11.734;2023-03-23T06:55:42;16.80;60.60
29031;DHT22;16122;50.236;11.734;2023-03-23T06:58:08;16.80;60.60
29031;DHT22;16122;50.236;11.734;2023-03-23T07:00:34;16.80;60.50
29031;DHT22;16122;50.236;11.734;2023-03-23T07:03:01;16.80;60.40
29031;DHT22;16122;50.236;11.734;2023-03-23T07:05:27;16.80;60.20
29031;DHT22;16122;50.236;11.734;2023-03-23T07:07:54;16.80;60.30
29031;DHT22;16122;50.236;11.734;2023-03-23T07:10:28;16.80;60.40
29031;DHT22;16122;50.236;11.734;2023-03-23T07:12:55;16.80;60.60
29031;DHT22;16122;50.236;11.734;2023-03-23T07:15:21;16.80;60.80
29031;DHT22;16122;50.236;11.734;2023-03-23T07:17:50;16.80;61.60
29031;DHT22;16122;50.236;11.734;2023-03-23T07:20:31;16.80;60.70
29031;DHT22;16122;50.236;11.734;2023-03-23T07:22:58;16.80;60.80
29031;DHT22;16122;50.236;11.734;2023-03-23T07:25:53;16.80;60.70
29031;DHT22;16122;50.236;11.734;2023-03-23T07:28:24;16.80;60.60
29031;DHT22;16122;50.236;11.734;2023-03-23T07:30:51;16.80;60.40
29031;DHT22;16122;50.236;11.734;2023-03-23T07:33:17;16.90;60.50
29031;DHT22;16122;50.236;11.734;2023-03-23T07:35:44;16.90;60.40
29031;DHT22;16122;50.236;11.734;2023-03-23T07:38:14;16.80;60.30
29031;DHT22;16122;50.236;11.734;2023-03-23T07:40:46;16.90;60.40
29031;DHT22;16122;50.236;11.734;2023-03-23T07:43:15;16.80;60.20
29031;DHT22;16122;50.236;11.734;2023-03-23T07:46:07;16.80;60.20
29031;DHT22;16122;50.236;11.734;2023-03-23T07:48:49;16.80;60.10
29031;DHT22;16122;50.236;11.734;2023-03-23T07:51:16;16.90;60.20
29031;DHT22;16122;50.236;11.734;2023-03-23T07:53:44;16.80;60.10
29031;DHT22;16122;50.236;11.734;2023-03-23T07:56:39;16.90;60.20
29031;DHT22;16122;50.236;11.734;2023-03-23T07:59:14;16.90;60.20
29031;DHT22;16122;50.236;11.734;2023-03-23T08:01:42;16.90;60.20
29031;DHT22;16122;50.236;11.734;2023-03-23T08:04:26;16.80;60.00
29031;DHT22;16122;50.236;11.734;2023-03-23T08:07:11;16.90;60.10
29031;DHT22;16122;50.236;11.734;2023-03-23T08:09:49;16.80;59.90
29031;DHT22;16122;50.236;11.734;2023-03-23T08:12:36;16.80;59.80
29031;DHT22;16122;50.236;11.734;2023-03-23T08:15:16;16.90;59.90
29031;DHT22;16122;50.236;11.734;2023-03-23T08:17:51;16.90;59.80
29031;DHT22;16122;50.236;11.734;2023-03-23T08:20:49;16.80;59.80
29031;DHT22;16122;50.236;11.734;2023-03-23T08:23:32;16.80;59.80
29031;DHT22;16122;50.236;11.734;2023-03-23T08:26:17;16.90;59.80
29031;DHT22;16122;50.236;11.734;2023-03-23T08:29:01;16.90;59.80
29031;DHT22;16122;50.236;11.734;2023-03-23T08:31:52;16.90;59.70
29031;DHT22;16122;50.236;11.734;2023-03-23T08:34:38;16.80;59.60
29031;DHT22;16122;50.236;11.734;2023-03-23T08:37:16;16.80;59.60
29031;DHT22;16122;50.236;11.734;2023-03-23T08:40:13;16.90;59.70
29031;DHT22;16122;50.236;11.734;2023-03-23T08:42:50;16.90;59.70
29031;DHT22;16122;50.236;11.734;2023-03-23T08:45:35;16.80;59.60
29031;DHT22;16122;50.236;11.734;2023-03-23T08:48:25;16.90;59.70
29031;DHT22;16122;50.236;11.734;2023-03-23T08:51:16;16.80;59.60
29031;DHT22;16122;50.236;11.734;2023-03-23T08:54:11;16.80;59.60
29031;DHT22;16122;50.236;11.734;2023-03-23T08:56:58;16.80;59.60
29031;DHT22;16122;50.236;11.734;2023-03-23T08:59:47;16.90;59.60
29031;DHT22;16122;50.236;11.734;2023-03-23T09:02:18;16.90;59.60
29031;DHT22;16122;50.236;11.734;2023-03-23T09:05:04;16.90;59.60
29031;DHT22;16122;50.236;11.734;2023-03-23T09:08:01;16.80;59.50
29031;DHT22;16122;50.236;11.734;2023-03-23T09:10:29;16.90;59.60
29031;DHT22;16122;50.236;11.734;2023-03-23T09:12:56;16.80;59.50
29031;DHT22;16122;50.236;11.734;2023-03-23T09:15:22;16.90;59.50
29031;DHT22;16122;50.236;11.734;2023-03-23T09:17:50;16.80;59.40
29031;DHT22;16122;50.236;11.734;2023-03-23T09:20:19;16.90;59.40
29031;DHT22;16122;50.236;11.734;2023-03-23T09:22:48;16.80;59.30
29031;DHT22;16122;50.236;11.734;2023-03-23T09:25:16;16.90;59.40
29031;DHT22;16122;50.236;11.734;2023-03-23T09:27:44;16.90;59.30
29031;DHT22;16122;50.236;11.734;2023-03-23T09:30:13;16.90;59.30
29031;DHT22;16122;50.236;11.734;2023-03-23T09:32:40;16.90;59.30
29031;DHT22;16122;50.236;11.734;2023-03-23T09:35:09;16.80;59.30
29031;DHT22;16122;50.236;11.734;2023-03-23T09:37:38;16.90;59.30
29031;DHT22;16122;50.236;11.734;2023-03-23T09:40:07;16.80;59.20
29031;DHT22;16122;50.236;11.734;2023-03-23T09:45:54;16.80;59.20
29031;DHT22;16122;50.236;11.734;2023-03-23T09:51:17;16.90;59.30
29031;DHT22;16122;50.236;11.734;2023-03-23T09:53:51;16.80;59.20
29031;DHT22;16122;50.236;11.734;2023-03-23T09:56:19;16.80;59.20
29031;DHT22;16122;50.236;11.734;2023-03-23T09:59:01;16.80;59.20
29031;DHT22;16122;50.236;11.734;2023-03-23T10:01:45;16.80;59.10
29031;DHT22;16122;50.236;11.734;2023-03-23T10:04:39;16.90;59.20
29031;DHT22;16122;50.236;11.734;2023-03-23T10:07:21;16.90;59.20
29031;DHT22;16122;50.236;11.734;2023-03-23T10:09:51;16.80;59.10
29031;DHT22;16122;50.236;11.734;2023-03-23T10:15:27;16.90;59.20
29031;DHT22;16122;50.236;11.734;2023-03-23T10:20:58;16.90;59.20
29031;DHT22;16122;50.236;11.734;2023-03-23T10:23:44;16.90;59.10
29031;DHT22;16122;50.236;11.734;2023-03-23T10:26:46;16.80;59.00
29031;DHT22;16122;50.236;11.734;2023-03-23T10:29:16;16.80;59.00
29031;DHT22;16122;50.236;11.734;2023-03-23T10:31:47;16.90;59.10
29031;DHT22;16122;50.236;11.734;2023-03-23T10:37:28;16.80;58.90
29031;DHT22;16122;50.236;11.734;2023-03-23T10:40:00;16.80;58.90
29031;DHT22;16122;50.236;11.734;2023-03-23T10:42:37;16.80;58.90
29031;DHT22;16122;50.236;11.734;2023-03-23T10:45:30;16.80;58.90
29031;DHT22;16122;50.236;11.734;2023-03-23T10:48:24;16.80;58.90
29031;DHT22;16122;50.236;11.734;2023-03-23T10:50:50;16.90;58.90
29031;DHT22;16122;50.236;11.734;2023-03-23T10:53:42;16.80;58.90
29031;DHT22;16122;50.236;11.734;2023-03-23T10:56:47;16.90;58.90
29031;DHT22;16122;50.236;11.734;2023-03-23T10:59:17;16.90;58.90
29031;DHT22;16122;50.236;11.734;2023-03-23T11:01:50;16.80;58.90
29031;DHT22;16122;50.236;11.734;2023-03-23T11:04:17;16.80;58.90
29031;DHT22;16122;50.236;11.734;2023-03-23T11:06:47;16.80;58.80
29031;DHT22;16122;50.236;11.734;2023-03-23T11:09:16;16.90;58.90
29031;DHT22;16122;50.236;11.734;2023-03-23T11:11:53;16.80;58.90
29031;DHT22;16122;50.236;11.734;2023-03-23T11:14:33;16.90;58.90
29031;DHT22;16122;50.236;11.734;2023-03-23T11:17:02;16.80;58.90
29031;DHT22;16122;50.236;11.734;2023-03-23T11:19:30;16.80;59.10
29031;DHT22;16122;50.236;11.734;2023-03-23T11:22:07;16.80;59.20
29031;DHT22;16122;50.236;11.734;2023-03-23T11:24:37;16.90;59.40
29031;DHT22;16122;50.236;11.734;2023-03-23T11:27:07;16.80;59.30
29031;DHT22;16122;50.236;11.734;2023-03-23T11:29:35;16.90;59.50
29031;DHT22;16122;50.236;11.734;2023-03-23T11:32:05;16.90;60.00
29031;DHT22;16122;50.236;11.734;2023-03-23T11:34:44;16.90;59.40
29031;DHT22;16122;50.236;11.734;2023-03-23T11:37:19;16.80;59.40
29031;DHT22;16122;50.236;11.734;2023-03-23T11:55:49;16.80;59.60
29031;DHT22;16122;50.236;11.734;2023-03-23T11:58:21;16.90;59.70
29031;DHT22;16122;50.236;11.734;2023-03-23T12:16:28;16.90;59.60
29031;DHT22;16122;50.236;11.734;2023-03-23T12:21:10;16.90;59.60
29031;DHT22;16122;50.236;11.734;2023-03-23T12:29:14;16.90;59.30
29031;DHT22;16122;50.236;11.734;2023-03-23T12:34:41;16.90;59.30
29031;DHT22;16122;50.236;11.734;2023-03-23T12:47:37;16.90;59.30
29031;DHT22;16122;50.236;11.734;2023-03-23T12:50:15;16.90;59.30
29031;DHT22;16122;50.236;11.734;2023-03-23T12:58:16;16.90;59.30
29031;DHT22;16122;50.236;11.734;2023-03-23T13:00:54;16.80;59.20
29031;DHT22;16122;50.236;11.734;2023-03-23T13:06:19;16.90;59.20
29031;DHT22;16122;50.236;11.734;2023-03-23T13:11:38;16.90;59.20
29031;DHT22;16122;50.236;11.734;2023-03-23T13:14:53;16.90;59.10
29031;DHT22;16122;50.236;11.734;2023-03-23T13:17:38;16.90;59.20
29031;DHT22;16122;50.236;11.734;2023-03-23T13:20:32;16.90;59.10
29031;DHT22;16122;50.236;11.734;2023-03-23T13:23:15;16.90;59.10
29031;DHT22;16122;50.236;11.734;2023-03-23T13:26:05;16.90;59.20
29031;DHT22;16122;50.236;11.734;2023-03-23T13:28:51;16.90;59.10
29031;DHT22;16122;50.236;11.734;2023-03-23T13:36:38;16.90;59.10
29031;DHT22;16122;50.236;11.734;2023-03-23T13:39:06;16.90;59.10
29031;DHT22;16122;50.236;11.734;2023-03-23T13:41:58;16.90;59.10
29031;DHT22;16122;50.236;11.734;2023-03-23T13:44:26;16.90;59.00
29031;DHT22;16122;50.236;11.734;2023-03-23T13:47:28;16.90;59.00
29031;DHT22;16122;50.236;11.734;2023-03-23T13:58:43;16.90;58.90
29031;DHT22;16122;50.236;11.734;2023-03-23T14:00:48;16.90;58.90
29031;DHT22;16122;50.236;11.734;2023-03-23T14:03:35;16.90;59.00
29031;DHT22;16122;50.236;11.734;2023-03-23T14:06:05;16.90;59.00
29031;DHT22;16122;50.236;11.734;2023-03-23T14:08:44;16.90;59.00
29031;DHT22;16122;50.236;11.734;2023-03-23T14:11:29;16.90;59.00
29031;DHT22;16122;50.236;11.734;2023-03-23T14:14:31;16.90;59.00
29031;DHT22;16122;50.236;11.734;2023-03-23T14:17:24;16.80;58.90
29031;DHT22;16122;50.236;11.734;2023-03-23T14:19:53;16.90;59.00
29031;DHT22;16122;50.236;11.734;2023-03-23T14:24:50;16.80;59.00
29031;DHT22;16122;50.236;11.734;2023-03-23T14:27:19;16.90;59.00
29031;DHT22;16122;50.236;11.734;2023-03-23T14:29:46;16.80;58.90
29031;DHT22;16122;50.236;11.734;2023-03-23T14:32:23;16.90;58.90
29031;DHT22;16122;50.236;11.734;2023-03-23T14:34:52;16.80;58.90
29031;DHT22;16122;50.236;11.734;2023-03-23T14:37:19;16.90;58.90
29031;DHT22;16122;50.236;11.734;2023-03-23T14:39:48;16.80;58.90
29031;DHT22;16122;50.236;11.734;2023-03-23T14:44:59;16.80;58.80
29031;DHT22;16122;50.236;11.734;2023-03-23T14:47:30;16.80;58.80
29031;DHT22;16122;50.236;11.734;2023-03-23T14:49:59;16.80;58.80
29031;DHT22;16122;50.236;11.734;2023-03-23T14:52:28;16.80;58.80
29031;DHT22;16122;50.236;11.734;2023-03-23T14:54:54;16.90;58.90
29031;DHT22;16122;50.236;11.734;2023-03-23T14:57:27;16.90;58.90
29031;DHT22;16122;50.236;11.734;2023-03-23T14:59:54;16.90;58.90
29031;DHT22;16122;50.236;11.734;2023-03-23T15:02:33;16.80;58.80
29031;DHT22;16122;50.236;11.734;2023-03-23T15:05:13;16.80;58.70
29031;DHT22;16122;50.236;11.734;2023-03-23T15:07:43;16.80;58.70
29031;DHT22;16122;50.236;11.734;2023-03-23T15:10:15;16.80;58.70
29031;DHT22;16122;50.236;11.734;2023-03-23T15:12:44;16.90;58.80
29031;DHT22;16122;50.236;11.734;2023-03-23T15:15:24;16.80;58.90
29031;DHT22;16122;50.236;11.734;2023-03-23T15:17:50;16.90;59.20
29031;DHT22;16122;50.236;11.734;2023-03-23T15:20:27;16.80;59.30
29031;DHT22;16122;50.236;11.734;2023-03-23T15:22:54;16.80;59.30
29031;DHT22;16122;50.236;11.734;2023-03-23T15:25:21;16.80;59.40
29031;DHT22;16122;50.236;11.734;2023-03-23T15:27:53;16.80;59.50
29031;DHT22;16122;50.236;11.734;2023-03-23T15:34:46;16.80;59.60
29031;DHT22;16122;50.236;11.734;2023-03-23T15:37:29;16.80;60.40
29031;DHT22;16122;50.236;11.734;2023-03-23T15:39:59;16.90;59.70
29031;DHT22;16122;50.236;11.734;2023-03-23T15:42:34;16.90;59.60
29031;DHT22;16122;50.236;11.734;2023-03-23T15:50:17;16.80;59.20
29031;DHT22;16122;50.236;11.734;2023-03-23T15:52:44;16.80;59.20
29031;DHT22;16122;50.236;11.734;2023-03-23T15:57:49;16.80;59.60
29031;DHT22;16122;50.236;11.734;2023-03-23T16:00:17;16.90;59.80
29031;DHT22;16122;50.236;11.734;2023-03-23T16:02:48;16.80;59.80
29031;DHT22;16122;50.236;11.734;2023-03-23T16:05:15;16.90;59.90
29031;DHT22;16122;50.236;11.734;2023-03-23T16:07:41;16.90;60.00
29031;DHT22;16122;50.236;11.734;2023-03-23T16:10:15;16.80;59.90
29031;DHT22;16122;50.236;11.734;2023-03-23T16:12:41;16.90;60.10
29031;DHT22;16122;50.236;11.734;2023-03-23T16:15:07;16.90;60.20
29031;DHT22;16122;50.236;11.734;2023-03-23T16:17:34;16.90;60.20
29031;DHT22;16122;50.236;11.734;2023-03-23T16:20:00;16.90;60.20
29031;DHT22;16122;50.236;11.734;2023-03-23T16:22:27;16.90;60.40
29031;DHT22;16122;50.236;11.734;2023-03-23T16:24:53;16.90;60.50
29031;DHT22;16122;50.236;11.734;2023-03-23T16:27:19;16.90;60.70
29031;DHT22;16122;50.236;11.734;2023-03-23T16:29:46;16.90;60.80
29031;DHT22;16122;50.236;11.734;2023-03-23T16:32:12;16.90;61.00
29031;DHT22;16122;50.236;11.734;2023-03-23T16:34:37;16.90;60.90
29031;DHT22;16122;50.236;11.734;2023-03-23T16:37:04;16.90;61.10
29031;DHT22;16122;50.236;11.734;2023-03-23T16:39:31;16.90;61.00
29031;DHT22;16122;50.236;11.734;2023-03-23T16:41:57;16.90;60.50
29031;DHT22;16122;50.236;11.734;2023-03-23T16:44:22;16.90;60.40
29031;DHT22;16122;50.236;11.734;2023-03-23T16:46:48;16.90;60.60
29031;DHT22;16122;50.236;11.734;2023-03-23T16:49:14;16.90;60.60
29031;DHT22;16122;50.236;11.734;2023-03-23T16:51:40;16.90;60.80
29031;DHT22;16122;50.236;11.734;2023-03-23T16:54:06;16.90;60.80
29031;DHT22;16122;50.236;11.734;2023-03-23T16:56:32;16.90;60.90
29031;DHT22;16122;50.236;11.734;2023-03-23T16:58:58;16.90;60.90
29031;DHT22;16122;50.236;11.734;2023-03-23T17:01:24;16.90;60.80
29031;DHT22;16122;50.236;11.734;2023-03-23T17:03:49;16.90;60.70
29031;DHT22;16122;50.236;11.734;2023-03-23T17:06:15;16.90;60.60
29031;DHT22;16122;50.236;11.734;2023-03-23T17:08:41;16.90;61.00
29031;DHT22;16122;50.236;11.734;2023-03-23T17:11:07;16.90;60.70
29031;DHT22;16122;50.236;11.734;2023-03-23T17:13:32;16.90;60.70
29031;DHT22;16122;50.236;11.734;2023-03-23T17:15:59;16.90;60.80
29031;DHT22;16122;50.236;11.734;2023-03-23T17:18:25;16.90;61.00
29031;DHT22;16122;50.236;11.734;2023-03-23T17:20:53;16.90;61.00
29031;DHT22;16122;50.236;11.734;2023-03-23T17:23:19;16.90;61.10
29031;DHT22;16122;50.236;11.734;2023-03-23T17:25:47;16.90;61.20
29031;DHT22;16122;50.236;11.734;2023-03-23T17:28:13;16.90;61.40
29031;DHT22;16122;50.236;11.734;2023-03-23T17:30:43;16.90;61.50
29031;DHT22;16122;50.236;11.734;2023-03-23T17:33:10;16.90;61.50
29031;DHT22;16122;50.236;11.734;2023-03-23T17:35:36;16.90;61.60
29031;DHT22;16122;50.236;11.734;2023-03-23T17:38:02;16.90;61.70
29031;DHT22;16122;50.236;11.734;2023-03-23T17:40:28;16.90;61.60
29031;DHT22;16122;50.236;11.734;2023-03-23T17:42:54;16.90;61.60
29031;DHT22;16122;50.236;11.734;2023-03-23T17:45:20;16.90;61.50
29031;DHT22;16122;50.236;11.734;2023-03-23T17:47:45;16.90;61.40
29031;DHT22;16122;50.236;11.734;2023-03-23T17:50:11;17.00;61.60
29031;DHT22;16122;50.236;11.734;2023-03-23T17:52:37;16.90;61.60
29031;DHT22;16122;50.236;11.734;2023-03-23T17:55:04;16.90;61.70
29031;DHT22;16122;50.236;11.734;2023-03-23T17:57:30;16.90;61.70
29031;DHT22;16122;50.236;11.734;2023-03-23T17:59:56;16.90;61.70
29031;DHT22;16122;50.236;11.734;2023-03-23T18:02:22;17.00;61.50
29031;DHT22;16122;50.236;11.734;2023-03-23T18:04:48;16.90;61.40
29031;DHT22;16122;50.236;11.734;2023-03-23T18:07:14;16.90;61.50
29031;DHT22;16122;50.236;11.734;2023-03-23T18:09:40;16.90;61.50